Weather observations for the past three days for
New Ulm Municipal Airport
Metric (Imperial)
Date Time (cdt) Wind (kph) Vis. (km) Weather Sky Cond. Temperature (ºC) Relative Humidity Wind Chill (°C) Heat Index (°C) Pressure Precipitation (cm)
Air Dwpt 6 hour altimeter (cm) sea level (mb) 1 hr 3 hr 6 hr
Max. Min.
06 00:35 NW 9 16.09 Fair CLR 2 -4 65% -0 76.12 0.0
06 00:15 NW 11 16.09 Fair CLR 2 -4 65% -1 76.12 0.0
05 23:55 NW 11 16.09 Fair CLR 2 -4 65% -1 76.12 0.0
05 23:35 NW 11 16.09 Fair CLR 2 -4 65% -1 76.12 0.0
05 23:15 NW 11 16.09 Fair CLR 2 -4 65% -1 76.1 0.0
05 22:55 NW 9 16.09 Fair CLR 3 -4 60% 1 76.1 0.0
05 22:35 NW 11 16.09 Fair CLR 4 -3 61% 2 76.1 0.0
05 22:15 NW 11 16.09 Fair CLR 5 -3 57% 3 76.07 0.0
05 21:55 NW 13 16.09 Fair CLR 5 -3 57% 2 76.07 0.0
05 21:35 NW 13 16.09 Fair CLR 6 -3 53% 4 76.05 0.0
05 21:15 NW 17 16.09 Fair CLR 6 -3 53% 3 76.02 0.0
05 20:55 NW 19 16.09 Fair CLR 7 -3 49% 4 76 0.0
05 20:35 NW 20 16.09 Fair CLR 8 -3 46% 5 75.97 0.0
05 20:15 NW 24 G 33 16.09 Fair CLR 8 -3 46% 5 75.97 0.0
05 19:55 NW 24 16.09 Mostly Cloudy BKN080 8 -3 46% 5 75.92 0.0
05 19:35 NW 31 G 39 16.09 Overcast OVC080 9 -3 43% 5 75.92 0.0
05 19:15 N 26 G 39 16.09 Overcast OVC080 9 -3 43% 6 75.92 0.0
05 18:55 NW 26 G 35 16.09 Overcast OVC070 9 -3 43% 6 75.9 0.0
05 18:35 NW 28 16.09 Overcast OVC070 9 -3 43% 6 75.9 0.0
05 18:15 NW 30 G 39 16.09 Overcast OVC080 10 -3 40% 7 75.87 0.0
05 17:55 NW 20 G 44 16.09 Overcast OVC080 10 -3 40% 8 75.87 0.0
05 17:35 NW 30 G 41 16.09 Overcast OVC080 11 -3 38% 75.87 0.0
05 17:15 NW 28 16.09 Overcast OVC080 11 -3 38% 75.84 0.0
05 16:55 NW 26 G 41 16.09 Overcast OVC080 11 -2 41% 75.84 0.0
05 16:35 NW 22 G 30 16.09 Overcast OVC080 11 -2 41% 75.87 0.0
05 16:15 NW 28 G 37 16.09 Overcast OVC080 11 -2 41% 75.87 0.0
05 15:55 NW 26 G 35 16.09 Overcast BKN070 OVC090 11 -2 41% 75.87 0.0
05 15:35 NW 19 G 30 16.09 Overcast SCT070 OVC090 11 -2 41% 75.9 0.0
05 15:15 NW 17 16.09 Overcast SCT080 OVC085 10 -3 40% 8 75.9 0.0
05 14:55 NW 24 G 37 16.09 Overcast SCT070 OVC080 11 -2 41% 75.9 0.0
05 14:35 NW 19 G 35 16.09 Overcast SCT070 OVC080 10 -3 40% 8 75.9 0.0
05 14:15 W 13 G 31 16.09 Overcast SCT065 OVC080 10 -2 43% 8 75.92 0.0
05 13:55 NW 26 G 46 16.09 Overcast SCT065 OVC080 10 -3 40% 7 75.9 0.0
05 13:35 NW 26 G 35 16.09 Overcast SCT065 OVC080 9 -3 43% 6 75.92 0.0
05 13:15 NW 17 16.09 Overcast SCT065 OVC080 9 -3 43% 7 75.92 0.0
05 12:55 NW 15 G 28 16.09 Overcast OVC080 9 -2 46% 7 75.92 0.0
05 12:35 NW 20 16.09 Overcast SCT060 OVC080 9 -2 46% 6 75.92 0.0
05 12:15 NW 15 G 26 16.09 Overcast SCT060 OVC080 9 -2 46% 7 75.92 0.0
05 11:55 NW 22 G 31 16.09 Overcast BKN060 OVC070 8 -2 50% 5 75.92 0.0
05 11:35 N 17 16.09 Overcast BKN060 OVC080 8 -2 50% 6 75.92 0.0
05 11:15 W 15 16.09 Overcast SCT049 BKN060 OVC080 8 -1 53% 6 75.92 0.0
05 10:55 W 7 16.09 Overcast SCT046 SCT060 OVC080 8 -1 53% 7 75.92 0.0
05 10:35 N 11 G 26 16.09 Mostly Cloudy SCT048 SCT060 BKN080 8 -1 53% 6 75.92 0.0
05 10:15 NW 6 16.09 Partly Cloudy SCT080 8 -1 53% 75.92 0.0
05 09:55 W 7 16.09 Mostly Cloudy SCT050 SCT065 BKN080 7 0 61% 6 75.92 0.0
05 09:35 W 6 16.09 Overcast SCT065 OVC080 7 0 61% 75.9 0.0
05 09:15 Calm 16.09 Overcast OVC065 7 0 61% 75.9 0.0
05 08:55 Calm 16.09 Mostly Cloudy BKN065 6 0 66% 75.9 0.0
05 08:35 W 6 16.09 Fair CLR 5 -1 66% 75.87 0.0
05 08:15 W 9 16.09 Fair CLR 4 -1 70% 2 75.84 0.0
05 07:55 W 7 16.09 Fair CLR 4 -1 70% 2 75.84 0.0
05 07:35 W 7 16.09 Fair CLR 3 -1 75% 1 75.82 0.0
05 07:15 W 7 16.09 Fair CLR 2 -1 81% 0 75.79 0.0
05 06:55 SW 6 16.09 Fair CLR 1 -2 81% 75.77 0.0
05 06:35 SW 7 16.09 Fair CLR -1 -3 86% -3 75.74 0.0
05 06:15 W 6 16.09 Fair CLR 1 -3 75% 75.72 0.0
05 05:55 NW 7 16.09 Fair CLR 1 -2 81% -1 75.72 0.0
05 05:35 NW 11 16.09 Fair CLR 1 -2 81% -2 75.69 0.0
05 04:55 NW 9 16.09 Fair CLR 2 -2 75% -0 75.69 0.0
05 04:15 W 9 16.09 Fair CLR 1 -3 75% -2 75.69 0.0
05 03:55 W 9 16.09 Fair CLR 1 -3 75% -2 75.67 0.0
05 03:35 W 7 16.09 Fair CLR 1 -3 75% -1 75.67 0.0
05 03:15 W 7 16.09 Fair CLR 2 -2 75% 0 75.64 0.0
05 02:55 NW 9 16.09 Fair CLR 3 -2 70% 1 75.62 0.0
05 02:35 W 9 16.09 Fair CLR 3 -2 70% 1 75.62 0.0
05 02:15 NW 6 16.09 Fair CLR 3 -2 70% 75.62 0.0
05 01:55 NW 9 16.09 Fair CLR 4 -2 65% 2 75.64 0.0
05 01:35 NW 7 16.09 Fair CLR 4 -2 65% 2 75.64 0.0
05 01:15 NW 9 16.09 Fair CLR 4 -2 65% 2 75.64 0.0
05 00:55 NW 11 16.09 Fair CLR 3 -2 70% 0 75.64 0.0
05 00:35 NW 9 16.09 Fair CLR 4 -2 65% 2 75.64 0.0
05 00:15 W 11 16.09 Fair CLR 5 -2 61% 3 75.64 0.0
04 23:55 W 13 16.09 Fair CLR 6 -2 57% 4 75.62 0.0
04 23:35 W 11 16.09 Fair CLR 6 -2 57% 4 75.62 0.0
04 23:15 W 13 16.09 Fair CLR 6 -2 57% 4 75.62 0.0
04 22:55 W 11 16.09 Fair CLR 6 -2 57% 4 75.62 0.0
04 22:35 W 9 16.09 Fair CLR 7 -2 53% 5 75.59 0.0
04 22:15 W 9 16.09 Fair CLR 7 -2 53% 5 75.59 0.0
04 21:55 W 7 16.09 Fair CLR 7 -2 53% 6 75.59 0.0
04 21:35 NW 11 16.09 Fair CLR 7 -3 49% 5 75.59 0.0
04 21:15 NW 13 16.09 Fair CLR 8 -2 50% 6 75.57 0.0
04 20:55 NW 19 16.09 Fair CLR 9 -2 46% 7 75.54 0.0
04 20:35 NW 26 G 39 16.09 Fair CLR 9 -3 43% 6 75.54 0.0
04 20:15 NW 26 G 39 16.09 Fair CLR 10 -3 40% 7 75.51 0.0
04 19:55 NW 28 G 46 16.09 Fair CLR 11 -2 41% 75.49 0.0
04 19:35 NW 35 G 52 16.09 Fair and Breezy CLR 11 -2 41% 75.46 0.0
04 19:15 NW 37 G 50 16.09 Partly Cloudy and Breezy SCT065 12 -1 41% 75.44 0.0
04 18:55 NW 28 G 46 16.09 Partly Cloudy SCT065 12 -1 41% 75.41 0.0
04 18:35 NW 35 G 48 16.09 Fair and Breezy CLR 12 -1 41% 75.41 0.0
04 18:15 NW 37 G 52 16.09 Partly Cloudy and Breezy SCT065 12 -1 41% 75.39 0.0
04 17:55 NW 35 G 54 16.09 Fair and Breezy CLR 12 -1 41% 75.39 0.0
04 17:35 NW 35 G 54 16.09 Fair and Breezy CLR 13 1 44% 75.36 0.0
04 17:15 NW 44 G 52 16.09 Fair and Windy CLR 14 1 41% 75.34 0.0
04 16:55 NW 41 G 52 16.09 Fair and Breezy CLR 14 2 44% 75.31 0.0
04 16:35 NW 41 G 54 16.09 Partly Cloudy and Breezy SCT065 14 2 44% 75.29 0.0
04 16:15 NW 41 G 54 16.09 Partly Cloudy and Breezy SCT065 14 2 44% 75.26 0.0
04 15:55 NW 43 G 57 16.09 Fair and Windy CLR 15 1 39% 75.26 0.0
04 15:35 NW 39 G 48 16.09 Fair and Breezy CLR 15 2 42% 75.26 0.0
04 15:15 NW 37 G 50 16.09 Fair and Breezy CLR 15 2 42% 75.26 0.0
04 14:55 NW 35 G 54 16.09 Partly Cloudy and Breezy SCT120 14 1 41% 75.26 0.0
04 14:35 W 30 G 44 16.09 Partly Cloudy SCT110 14 2 44% 75.23 0.0
04 14:15 NW 35 G 52 16.09 Partly Cloudy and Breezy SCT110 14 2 44% 75.21 0.0
04 13:55 NW 43 G 56 16.09 Fair and Windy CLR 16 2 39% 75.21 0.0
04 13:35 NW 33 G 48 16.09 Fair and Breezy CLR 16 3 42% 75.18 0.0
04 13:15 NW 44 G 59 16.09 Fair and Windy CLR 16 2 39% 75.16 0.0
04 12:55 NW 39 G 50 16.09 Fair and Breezy CLR 16 2 39% 75.13 0.0
04 12:35 W 31 G 48 16.09 Fair CLR 16 2 39% 75.13 0.0
04 12:15 NW 33 G 48 16.09 Fair and Breezy CLR 16 3 42% 75.13 0.0
04 11:55 NW 41 G 52 16.09 Fair and Breezy CLR 16 3 42% 75.11 0.0
04 11:35 N 37 G 48 16.09 Fair and Breezy CLR 16 3 42% 75.08 0.0
04 11:15 NW 35 G 44 16.09 Fair and Breezy CLR 16 4 45% 75.08 0.0
04 10:55 NW 41 G 50 16.09 Fair and Breezy CLR 16 4 45% 75.08 0.0
04 10:35 NW 41 G 46 16.09 Fair and Breezy CLR 16 4 45% 75.06 0.0
04 10:15 NW 39 G 48 16.09 Fair and Breezy CLR 15 4 48% 75.06 0.0
04 09:55 NW 37 G 44 16.09 Partly Cloudy and Breezy SCT120 15 4 48% 75.06 0.0
04 09:35 NW 39 G 46 16.09 Fair and Breezy CLR 15 4 48% 75.03 0.0
04 09:15 NW 33 G 43 16.09 Fair and Breezy CLR 15 4 48% 75.03 0.0
04 08:55 NW 35 G 41 16.09 Fair and Breezy CLR 14 4 51% 75.03 0.0
04 08:35 NW 37 G 44 16.09 Fair and Breezy CLR 14 4 51% 75.03 0.0
04 08:15 NW 20 16.09 Fair CLR 15 6 55% 74.98 0.0
04 07:55 NW 22 G 41 16.09 Fair CLR 15 6 55% 74.98 0.0
04 07:35 NW 33 G 44 16.09 Fair and Breezy CLR 15 6 55% 74.96 0.0
04 07:15 W 24 16.09 Fair CLR 14 4 51% 74.93 0.0
04 06:55 W 31 G 39 16.09 Fair CLR 14 4 51% 74.9 0.0
04 06:35 W 24 16.09 Partly Cloudy SCT100 14 4 51% 74.85 0.0
04 06:15 SW 22 16.09 Partly Cloudy SCT100 14 4 51% 74.83 0.0
04 05:55 SW 22 16.09 Fair CLR 14 3 48% 74.83 0.0
04 05:35 SW 22 G 31 16.09 Fair CLR 13 3 51% 74.83 0.0
04 05:15 SW 22 16.09 Fair CLR 13 3 51% 74.85 0.0
04 04:55 SW 22 16.09 Fair CLR 12 3 54% 74.85 0.0
04 04:35 SW 22 16.09 Fair CLR 12 3 54% 74.88 0.0
04 04:15 SW 20 16.09 Fair CLR 12 4 58% 74.9 0.0
04 03:55 SW 19 16.09 Fair CLR 12 4 58% 74.93 0.0
04 03:35 SW 17 16.09 Fair CLR 11 4 62% 74.96 0.0
04 03:15 SW 17 16.09 Fair CLR 11 4 62% 74.98 0.0
04 02:55 SW 20 16.09 Fair CLR 12 4 58% 75.01 0.0
04 02:35 SW 13 16.09 Fair CLR 11 4 62% 75.03 0.0
04 02:15 SW 19 16.09 Fair CLR 12 4 58% 75.03 0.0
04 01:55 SW 15 16.09 Fair CLR 12 3 54% 75.08 0.0
04 01:35 SW 15 16.09 Fair CLR 11 3 58% 75.11 0.0
04 01:15 SW 15 16.09 Fair CLR 11 3 58% 75.13 0.0
04 00:55 SW 15 16.09 Fair CLR 11 3 58% 75.18 0.0
04 00:35 SW 13 16.09 Fair CLR 12 3 54% 75.21 0.0
04 00:15 SW 15 16.09 Fair CLR 12 3 54% 75.21 0.0
03 23:55 SW 13 16.09 Fair CLR 13 2 47% 75.23 0.0
03 23:35 SW 13 16.09 Fair CLR 12 3 54% 75.26 0.0
03 23:15 SW 13 16.09 Fair CLR 13 3 51% 75.26 0.0
03 22:55 SW 11 16.09 Fair CLR 14 3 48% 75.31 0.0
03 22:35 SW 7 16.09 Fair CLR 12 3 54% 75.34 0.0
03 22:15 SW 7 16.09 Fair CLR 13 3 51% 75.36 0.0
03 21:55 SW 7 16.09 Fair CLR 14 3 48% 75.36 0.0
03 21:35 SW 6 16.09 Fair CLR 13 3 51% 75.36 0.0
03 21:15 S 6 16.09 Fair CLR 17 2 37% 75.39 0.0
03 20:55 Calm 16.09 Fair CLR 18 2 34% 75.39 0.0
03 20:35 Calm 16.09 Fair CLR 18 2 34% 75.39 0.0
03 20:15 Calm 16.09 Fair CLR 18 3 37% 75.39 0.0
03 19:55 NW 6 16.09 Fair CLR 19 3 35% 75.39 0.0
03 19:35 NW 6 16.09 Fair CLR 19 4 37% 75.39 0.0
03 19:15 NW 9 16.09 Fair CLR 20 3 33% 75.41 0.0
03 18:55 NW 15 16.09 Fair CLR 21 4 33% 75.44 0.0
03 18:35 NW 20 16.09 Fair CLR 21 3 31% 75.46 0.0
03 18:15 NW 20 G 28 16.09 Fair CLR 21 3 31% 75.46 0.0
03 17:55 NW 22 G 31 16.09 Fair CLR 21 3 31% 75.46 0.0
03 17:15 NW 22 G 31 16.09 Fair CLR 22 4 31% 75.49 0.0
03 16:55 NW 28 G 41 16.09 Fair CLR 21 4 33% 75.49 0.0
03 16:35 NW 28 16.09 Fair CLR 21 4 33% 75.49 0.0
03 16:15 W 31 G 43 16.09 Fair CLR 22 4 31% 75.51 0.0
03 15:55 W 26 G 35 16.09 Fair CLR 21 4 33% 75.54 0.0
03 15:35 NW 24 G 41 16.09 Fair CLR 21 5 35% 75.54 0.0
03 15:15 NW 30 G 41 16.09 Fair CLR 21 5 35% 75.57 0.0
03 14:55 NW 24 G 43 16.09 Fair CLR 21 5 35% 75.59 0.0
03 14:35 NW 35 G 44 16.09 Fair and Breezy CLR 21 5 35% 75.59 0.0
03 14:15 NW 35 G 46 16.09 Fair and Breezy CLR 21 5 35% 75.62 0.0
03 13:55 NW 35 G 46 16.09 Fair and Breezy CLR 21 6 38% 75.62 0.0
03 13:35 NW 30 G 46 16.09 Fair CLR 20 5 38% 75.64 0.0
03 13:15 N 24 G 41 16.09 Fair CLR 20 4 35% 75.64 0.0
03 12:55 NW 19 G 26 16.09 Fair CLR 19 5 40% 75.67 0.0
03 12:35 NW 28 G 52 16.09 Fair CLR 19 5 40% 75.67 0.0
03 12:15 NW 33 G 46 16.09 Fair and Breezy CLR 19 5 40% 75.67 0.0
03 11:35 NW 26 G 44 16.09 Fair CLR 19 6 43% 75.69 0.0
03 11:15 NW 30 G 43 16.09 Fair CLR 19 6 43% 75.67 0.0
03 10:55 NW 26 G 43 16.09 Fair CLR 18 7 49% 75.67 0.0
03 10:35 NW 35 G 43 16.09 Fair and Breezy CLR 18 7 49% 75.67 0.0
03 10:15 NW 31 16.09 Fair CLR 17 6 49% 75.67 0.0
03 09:55 NW 24 G 33 16.09 Fair CLR 17 6 49% 75.67 0.0
03 09:35 NW 28 G 35 16.09 Fair CLR 16 6 52% 75.67 0.0
03 09:15 NW 26 G 35 16.09 Fair CLR 14 6 59% 75.64 0.0
03 08:55 NW 26 G 39 16.09 Fair CLR 14 5 55% 75.64 0.0
03 08:35 NW 26 G 39 16.09 Fair CLR 13 5 59% 75.62 0.0
03 08:15 NW 28 16.09 Fair CLR 13 4 55% 75.59 0.0
03 07:55 NW 28 G 41 16.09 Fair CLR 12 4 58% 75.57 0.0
03 07:35 NW 26 G 41 16.09 Fair CLR 11 4 62% 75.54 0.0
03 07:15 NW 30 G 35 16.09 Fair CLR 10 4 67% 7 75.49 0.0
03 06:55 NW 26 G 37 16.09 Fair CLR 9 4 71% 6 75.46 0.0
03 06:35 NW 24 16.09 Fair CLR 9 4 71% 6 75.46 0.0
03 06:15 NW 20 16.09 Fair CLR 10 4 67% 8 75.44 0.0
03 05:55 W 15 16.09 Fair CLR 9 4 71% 7 75.44 0.0
03 05:35 W 17 16.09 Fair CLR 10 4 67% 8 75.41 0.0
03 05:15 W 19 16.09 Fair CLR 11 4 62% 75.41 0.0
03 04:55 W 17 16.09 Fair CLR 11 4 62% 75.41 0.0
03 04:35 W 15 16.09 Fair CLR 11 4 62% 75.44 0.0
03 04:15 SW 13 16.09 Fair CLR 12 3 54% 75.41 0.0
03 03:55 SW 11 16.09 Fair CLR 12 3 54% 75.44 0.0
03 03:35 SW 17 16.09 Partly Cloudy SCT110 13 2 47% 75.44 0.0
03 03:15 S 15 16.09 Mostly Cloudy BKN110 13 2 47% 75.46 0.0
03 02:55 S 20 16.09 Fair CLR 13 2 47% 75.46 0.0
03 02:35 S 22 16.09 Fair CLR 13 2 47% 75.49 0.0
03 02:15 S 22 16.09 Fair CLR 14 2 44% 75.51 0.0
03 01:55 S 26 G 31 16.09 Partly Cloudy SCT100 14 2 44% 75.54 0.0
03 01:35 S 24 G 35 16.09 Mostly Cloudy BKN100 15 2 42% 75.54 0.0
03 01:15 S 24 16.09 Mostly Cloudy BKN100 15 2 42% 75.57 0.0
03 00:55 S 11 16.09 Mostly Cloudy BKN100 14 3 48% 75.62 0.0
Date Time (cdt) Wind (kph) Vis. (km) Weather Sky Cond. Air Dwpt Max. Min. Relative Humidity Wind Chill (°C) Heat Index (°C) altimeter (cm) sea level (mb) 1 hr 3 hr 6 hr
6 hour
Temperature (ºC) Pressure Precipitation (cm)